Time;durP1;ratioP1;P1;durP2;ratioP2;P2;SDS_P1;SDS_P2;PMS_P1;PMS_P2;Temp;Humidity;BMP_temperature;BMP_pressure;BME280_temperature;BME280_humidity;BME280_pressure;Samples;Min_cycle;Max_cycle;Signal;HPM_P1;HPM_P2
2022/07/19 00:00:14;;;;;;;6.97;5.03;;;;;;;19.16;50.21;96100.34;5070286;28;20031;-79
2022/07/19 00:02:40;;;;;;;10.63;4.68;;;;;;;19.16;50.68;96094.91;5069482;28;20040;-79
2022/07/19 00:05:07;;;;;;;5.63;4.90;;;;;;;19.12;50.97;96097.19;5069459;28;20035;-79
2022/07/19 00:07:33;;;;;;;6.43;4.60;;;;;;;19.09;51.14;96099.47;5053592;28;20516;-79
2022/07/19 00:09:58;;;;;;;11.80;5.07;;;;;;;19.08;51.59;96095.09;5068433;28;20034;-79
2022/07/19 00:12:24;;;;;;;8.82;5.28;;;;;;;19.09;51.59;96103.06;5070133;28;20023;-80
2022/07/19 00:14:49;;;;;;;8.60;4.40;;;;;;;19.04;51.78;96100.13;5068228;28;20024;-79
2022/07/19 00:17:15;;;;;;;8.05;4.50;;;;;;;19.05;52.20;96098.25;5087963;28;20040;-78
2022/07/19 00:19:40;;;;;;;5.57;3.95;;;;;;;19.02;52.18;96094.09;5068537;28;20032;-79
2022/07/19 00:22:06;;;;;;;4.88;3.90;;;;;;;18.98;52.35;96101.84;5087395;28;20482;-79
2022/07/19 00:24:31;;;;;;;6.78;3.88;;;;;;;18.98;52.41;96101.84;5087299;28;20474;-79
2022/07/19 00:26:57;;;;;;;4.07;3.42;;;;;;;19.08;52.53;96100.53;5086388;28;20451;-79
2022/07/19 00:29:22;;;;;;;6.00;3.70;;;;;;;19.13;52.26;96090.72;5069398;28;20069;-79
2022/07/19 00:31:47;;;;;;;9.48;3.85;;;;;;;19.16;52.37;96092.19;5085781;28;20032;-79
2022/07/19 00:34:13;;;;;;;4.35;3.00;;;;;;;19.17;52.62;96101.19;5069327;28;20035;-79
2022/07/19 00:36:38;;;;;;;4.05;3.10;;;;;;;19.21;52.42;96097.81;5085502;28;20024;-79
2022/07/19 00:39:04;;;;;;;4.70;3.20;;;;;;;19.22;52.63;96090.47;5069480;28;20016;-79
2022/07/19 00:41:29;;;;;;;4.30;3.67;;;;;;;19.22;52.93;96090.47;5086160;28;20093;-78
2022/07/19 00:43:56;;;;;;;4.85;3.60;;;;;;;19.17;52.98;96085.69;5086932;28;20024;-79
2022/07/19 00:46:22;;;;;;;7.30;4.13;;;;;;;19.13;53.19;96093.47;5052837;28;20024;-79
2022/07/19 00:48:50;;;;;;;6.20;3.42;;;;;;;19.13;53.01;96098.88;5067764;28;20023;-79
2022/07/19 00:51:16;;;;;;;6.70;3.88;;;;;;;19.12;53.77;96085.50;5069658;28;20130;-79
2022/07/19 00:53:41;;;;;;;5.20;3.78;;;;;;;19.08;53.92;96095.09;5050376;28;20031;-80
2022/07/19 00:56:08;;;;;;;4.22;3.58;;;;;;;19.06;53.65;96092.59;5052649;28;20032;-79
2022/07/19 00:58:35;;;;;;;7.60;3.72;;;;;;;19.02;53.88;96086.75;5051365;28;20057;-79
2022/07/19 01:01:01;;;;;;;4.80;3.83;;;;;;;19.03;53.96;96085.72;5051724;28;20028;-79
2022/07/19 01:03:27;;;;;;;7.45;4.03;;;;;;;18.98;54.10;96085.53;5052044;28;20103;-79
2022/07/19 01:05:52;;;;;;;5.03;3.60;;;;;;;18.97;54.39;96085.75;5068466;28;20068;-79
2022/07/19 01:08:18;;;;;;;5.13;3.55;;;;;;;18.98;54.12;96084.69;5052706;28;20470;-79
2022/07/19 01:10:43;;;;;;;6.95;3.00;;;;;;;18.93;54.13;96082.59;5067448;28;20049;-79
2022/07/19 01:13:09;;;;;;;5.07;2.92;;;;;;;18.85;54.68;96082.84;5069308;28;20426;-79
2022/07/19 01:15:35;;;;;;;7.60;2.80;;;;;;;18.88;54.57;96090.56;5050320;28;20028;-80
2022/07/19 01:18:00;;;;;;;5.97;3.10;;;;;;;18.95;54.54;96082.38;5035488;28;20048;-79
2022/07/19 01:20:26;;;;;;;3.85;2.40;;;;;;;18.90;54.58;96089.31;5085406;28;20039;-79
2022/07/19 01:22:51;;;;;;;3.50;2.88;;;;;;;18.90;54.38;96083.88;5067705;28;20028;-79
2022/07/19 01:25:18;;;;;;;7.07;2.50;;;;;;;18.84;54.19;96078.47;5086087;28;20016;-79
2022/07/19 01:27:45;;;;;;;2.97;2.40;;;;;;;18.84;54.46;96082.03;5050607;28;20043;-79
2022/07/19 01:30:14;;;;;;;2.60;2.40;;;;;;;18.85;54.41;96080.97;5068690;28;20024;-79
2022/07/19 01:32:40;;;;;;;7.13;2.55;;;;;;;18.91;54.61;96084.69;5066440;28;20153;-79
2022/07/19 01:35:07;;;;;;;4.47;2.67;;;;;;;18.94;54.08;96080.72;5068646;28;20042;-79
2022/07/19 01:37:33;;;;;;;4.50;2.30;;;;;;;18.86;54.17;96073.66;5066688;28;20088;-79
2022/07/19 01:39:59;;;;;;;4.25;2.80;;;;;;;18.85;54.32;96086.41;5068514;28;20024;-79
2022/07/19 01:42:24;;;;;;;4.03;2.40;;;;;;;18.87;54.19;96084.31;5085753;28;20494;-79
2022/07/19 01:44:50;;;;;;;4.35;2.40;;;;;;;18.87;54.61;96084.31;5067692;28;20039;-79
2022/07/19 01:47:15;;;;;;;4.13;2.35;;;;;;;18.95;54.14;96080.53;5068467;28;20468;-80
2022/07/19 01:49:41;;;;;;;5.40;2.50;;;;;;;18.98;54.09;96090.13;5084836;28;20028;-79
2022/07/19 01:52:07;;;;;;;5.60;2.40;;;;;;;18.93;54.17;96081.75;5051608;28;20032;-80
2022/07/19 01:54:32;;;;;;;3.13;2.38;;;;;;;18.97;54.46;96078.44;5084429;28;20035;-80
2022/07/19 01:56:58;;;;;;;4.15;2.33;;;;;;;18.89;54.28;96082.19;5051818;28;20020;-79
2022/07/19 01:59:24;;;;;;;3.80;2.15;;;;;;;18.88;54.46;96083.25;5066751;28;20048;-79
2022/07/19 02:01:49;;;;;;;5.32;2.22;;;;;;;18.79;54.63;96084.53;5051049;28;20024;-79
2022/07/19 02:04:14;;;;;;;4.13;2.47;;;;;;;18.76;54.74;96083.09;5085294;28;20020;-80
2022/07/19 02:06:40;;;;;;;3.55;2.10;;;;;;;18.72;54.99;96083.69;5085458;28;20346;-80
2022/07/19 02:09:05;;;;;;;4.18;2.13;;;;;;;18.79;54.80;96084.53;5067730;28;20035;-80
2022/07/19 02:11:37;;;;;;;4.57;2.28;;;;;;;18.84;54.36;96087.47;5067564;28;20027;-79
2022/07/19 02:14:08;;;;;;;4.40;2.45;;;;;;;18.75;54.77;96080.56;5075722;28;20032;-80
2022/07/19 02:16:34;;;;;;;4.55;2.60;;;;;;;18.76;54.67;96085.81;5056231;28;20494;-79
2022/07/19 02:19:00;;;;;;;4.75;2.28;;;;;;;18.66;54.80;96088.13;5074821;28;20031;-80
2022/07/19 02:21:25;;;;;;;5.88;2.42;;;;;;;18.70;54.90;96093.97;5091479;28;20020;-79
2022/07/19 02:23:51;;;;;;;4.55;2.38;;;;;;;18.60;54.54;96089.81;5092255;28;20097;-80
2022/07/19 02:26:16;;;;;;;3.70;2.90;;;;;;;18.56;55.25;96088.56;5057572;28;20032;-79
2022/07/19 02:28:42;;;;;;;3.65;2.70;;;;;;;18.51;55.32;96089.19;5073550;28;20021;-78
2022/07/19 02:31:07;;;;;;;4.18;3.08;;;;;;;18.52;54.97;96088.13;5057953;28;20035;-78
2022/07/19 02:33:32;;;;;;;5.20;2.55;;;;;;;18.51;55.44;96097.34;5091023;28;20452;-79
2022/07/19 02:35:58;;;;;;;5.32;3.38;;;;;;;18.49;54.91;96090.47;5092890;28;20051;-78
2022/07/19 02:38:23;;;;;;;3.95;2.58;;;;;;;18.51;55.08;96096.50;5091075;28;20025;-79
2022/07/19 02:40:49;;;;;;;4.07;2.90;;;;;;;18.51;55.25;96104.66;5074906;28;20459;-79
2022/07/19 02:43:14;;;;;;;7.18;2.85;;;;;;;18.41;55.59;96097.75;5072951;28;20024;-79
2022/07/19 02:45:40;;;;;;;3.25;2.13;;;;;;;18.45;55.15;96100.91;5091955;28;20039;-79
2022/07/19 02:48:05;;;;;;;6.78;2.65;;;;;;;18.40;55.14;96100.69;5092365;28;20081;-79
2022/07/19 02:50:31;;;;;;;5.57;2.60;;;;;;;18.41;55.43;96102.34;5072575;28;20026;-79
2022/07/19 02:52:57;;;;;;;4.40;2.42;;;;;;;18.44;55.04;96101.97;5074469;28;20032;-79
2022/07/19 02:55:22;;;;;;;4.15;2.55;;;;;;;18.45;55.42;96097.34;5092585;28;20036;-80
2022/07/19 02:57:48;;;;;;;4.50;2.70;;;;;;;18.45;55.15;96106.34;5086081;28;20036;-79
2022/07/19 03:00:14;;;;;;;6.88;2.72;;;;;;;18.44;54.75;96107.38;5095955;28;20016;-80
2022/07/19 03:02:39;;;;;;;3.05;2.50;;;;;;;18.40;55.08;96106.13;5075864;28;20393;-79
2022/07/19 03:05:05;;;;;;;5.30;2.60;;;;;;;18.43;55.20;96102.16;5073810;28;20028;-79
2022/07/19 03:07:31;;;;;;;3.75;2.40;;;;;;;18.37;55.39;96107.38;5091841;28;20020;-80
2022/07/19 03:09:56;;;;;;;4.47;2.75;;;;;;;18.39;55.33;96110.72;5074632;28;20031;-80
2022/07/19 03:12:22;;;;;;;5.38;2.85;;;;;;;18.45;54.85;96113.63;5072697;28;20039;-78
2022/07/19 03:14:47;;;;;;;4.38;2.72;;;;;;;18.52;54.42;96106.34;5074920;28;20020;-80
2022/07/19 03:17:12;;;;;;;5.97;2.92;;;;;;;18.50;54.45;96111.13;5054940;28;20047;-80
2022/07/19 03:19:38;;;;;;;5.05;2.75;;;;;;;18.59;54.43;96109.84;5074877;28;20470;-79
2022/07/19 03:22:03;;;;;;;7.03;3.10;;;;;;;18.62;54.15;96119.47;5072355;28;20093;-80
2022/07/19 03:24:29;;;;;;;7.32;2.90;;;;;;;18.63;54.42;96119.28;5090056;28;20499;-80
2022/07/19 03:26:54;;;;;;;4.82;3.40;;;;;;;18.66;53.74;96109.84;5057213;28;20693;-81
2022/07/19 03:29:20;;;;;;;4.68;3.15;;;;;;;18.61;53.37;96113.22;5088271;28;20492;-79
2022/07/19 03:31:45;;;;;;;4.60;3.33;;;;;;;18.58;53.38;96119.06;5071321;28;20028;-80
2022/07/19 03:34:11;;;;;;;7.70;3.45;;;;;;;18.54;53.15;96131.38;5086749;28;20028;-80
2022/07/19 03:36:36;;;;;;;7.68;3.80;;;;;;;18.51;53.13;96129.94;5054688;28;20418;-80
2022/07/19 03:39:02;;;;;;;5.53;4.05;;;;;;;18.54;52.90;96134.09;5086974;28;20032;-80
2022/07/19 03:41:27;;;;;;;6.50;4.18;;;;;;;18.58;52.96;96132.66;5088918;28;20105;-80
2022/07/19 03:43:53;;;;;;;6.38;4.10;;;;;;;18.59;53.05;96137.03;5052451;28;20028;-80
2022/07/19 03:46:20;;;;;;;9.10;4.03;;;;;;;18.64;53.13;96139.09;5070352;28;20024;-79
2022/07/19 03:48:46;;;;;;;6.30;4.13;;;;;;;18.63;53.12;96132.00;5088758;28;20031;-79
2022/07/19 03:51:12;;;;;;;7.45;3.70;;;;;;;18.65;52.85;96129.94;5069381;28;20039;-80
2022/07/19 03:53:37;;;;;;;5.68;4.43;;;;;;;18.58;53.57;96132.66;5089082;28;20028;-79
2022/07/19 03:56:03;;;;;;;10.23;4.40;;;;;;;18.63;53.39;96137.44;5086870;28;20024;-80
2022/07/19 03:58:28;;;;;;;6.65;4.47;;;;;;;18.67;53.66;96143.31;5073580;28;20077;-79
2022/07/19 04:00:54;;;;;;;8.25;4.60;;;;;;;18.60;53.82;96144.16;5086783;28;20051;-79
2022/07/19 04:03:19;;;;;;;6.35;4.25;;;;;;;18.62;53.62;96141.22;5070596;28;20048;-80
2022/07/19 04:05:44;;;;;;;7.53;4.07;;;;;;;18.65;53.53;96146.22;5087150;28;20505;-80
2022/07/19 04:08:10;;;;;;;6.60;4.75;;;;;;;18.62;53.56;96147.47;5088670;28;20093;-80
2022/07/19 04:10:35;;;;;;;6.60;4.25;;;;;;;18.62;53.73;96147.47;5070240;28;20028;-80
2022/07/19 04:13:01;;;;;;;9.55;4.65;;;;;;;18.62;53.42;96147.47;5087524;28;20024;-80
2022/07/19 04:15:26;;;;;;;6.95;4.55;;;;;;;18.65;54.38;96147.03;5069800;28;20052;-79
2022/07/19 04:17:52;;;;;;;5.13;4.03;;;;;;;18.70;54.02;96151.84;5086387;28;20483;-79
2022/07/19 04:20:17;;;;;;;5.93;3.92;;;;;;;18.75;53.24;96152.06;5088273;28;20097;-79
2022/07/19 04:22:43;;;;;;;12.88;4.75;;;;;;;18.81;53.06;96147.66;5067884;28;20024;-79
2022/07/19 04:25:08;;;;;;;8.43;4.28;;;;;;;18.89;53.25;96141.97;5088876;28;20410;-79
2022/07/19 04:27:34;;;;;;;10.50;4.25;;;;;;;18.92;54.13;96142.59;5068781;28;20024;-80
2022/07/19 04:29:59;;;;;;;6.15;5.15;;;;;;;19.03;53.47;96144.69;5052970;28;20025;-79
2022/07/19 04:32:25;;;;;;;11.02;4.97;;;;;;;19.07;53.46;96140.47;5087435;28;20106;-78
2022/07/19 04:34:50;;;;;;;7.45;4.78;;;;;;;19.19;53.74;96146.13;5068021;28;20024;-80
2022/07/19 04:37:16;;;;;;;7.75;4.10;;;;;;;19.30;54.24;96150.06;5070148;28;20216;-80
2022/07/19 04:39:41;;;;;;;5.20;4.43;;;;;;;19.36;53.91;96151.91;5067253;28;20024;-80
2022/07/19 04:42:07;;;;;;;7.20;4.80;;;;;;;19.49;53.02;96148.28;5053185;28;20020;-79
2022/07/19 04:44:32;;;;;;;6.07;4.25;;;;;;;19.58;53.20;96158.94;5085308;28;20043;-80
2022/07/19 04:46:58;;;;;;;8.75;4.53;;;;;;;19.71;52.28;96161.59;5069564;28;20020;-78
2022/07/19 04:49:23;;;;;;;7.20;4.63;;;;;;;19.85;51.71;96159.63;5068219;28;20460;-80
2022/07/19 04:51:49;;;;;;;8.30;4.68;;;;;;;19.99;51.40;96157.66;5051827;28;20110;-79
2022/07/19 04:54:14;;;;;;;6.00;4.55;;;;;;;20.06;52.03;96154.94;5087322;28;20077;-80
2022/07/19 04:56:40;;;;;;;11.93;4.30;;;;;;;20.17;51.96;96152.56;5085888;28;20019;-79
2022/07/19 04:59:05;;;;;;;8.15;3.90;;;;;;;20.28;52.04;96151.81;5088025;28;20031;-79
2022/07/19 05:01:31;;;;;;;5.97;4.20;;;;;;;20.39;51.57;96153.03;5066892;28;20039;-80
2022/07/19 05:03:56;;;;;;;7.75;4.30;;;;;;;20.49;51.77;96153.34;5069565;28;20028;-80
2022/07/19 05:06:24;;;;;;;5.35;3.63;;;;;;;20.58;51.18;96156.63;5067039;28;20024;-80
2022/07/19 05:08:51;;;;;;;7.03;3.67;;;;;;;20.71;49.90;96154.84;5052438;28;20028;-79
2022/07/19 05:11:16;;;;;;;5.97;3.70;;;;;;;20.78;49.61;96155.59;5051422;28;20036;-82
2022/07/19 05:13:41;;;;;;;6.15;3.55;;;;;;;20.86;49.32;96158.03;5085843;28;20031;-82
2022/07/19 05:16:07;;;;;;;9.95;3.72;;;;;;;20.97;49.10;96152.94;5068415;28;20021;-80
2022/07/19 05:18:32;;;;;;;11.68;3.45;;;;;;;21.10;49.52;96152.78;5063911;28;20039;-80
2022/07/19 05:20:58;;;;;;;4.43;3.45;;;;;;;21.24;49.18;96158.09;5065274;28;20059;-80
2022/07/19 05:23:23;;;;;;;7.65;3.58;;;;;;;21.17;49.74;96149.97;5064839;28;20033;-81
2022/07/19 05:25:49;;;;;;;8.48;3.38;;;;;;;21.20;49.33;96159.63;5066158;28;20028;-81
2022/07/19 05:28:14;;;;;;;9.85;3.45;;;;;;;21.39;48.74;96165.06;5063277;28;20460;-81
2022/07/19 05:30:41;;;;;;;6.95;3.33;;;;;;;21.44;48.45;96159.75;5065751;28;20040;-80
2022/07/19 05:33:06;;;;;;;5.60;3.05;;;;;;;21.41;48.76;96162.94;5065533;28;20024;-81
2022/07/19 05:35:32;;;;;;;5.18;2.90;;;;;;;21.54;49.25;96162.78;5063908;28;20573;-81
2022/07/19 05:37:57;;;;;;;14.95;4.55;;;;;;;21.58;49.21;96161.28;5064508;28;20036;-79
2022/07/19 05:40:23;;;;;;;6.45;3.30;;;;;;;21.75;49.20;96163.34;5064379;28;20021;-80
2022/07/19 05:42:48;;;;;;;14.93;3.67;;;;;;;21.88;48.57;96161.53;5065965;28;20029;-81
2022/07/19 05:45:14;;;;;;;9.60;3.50;;;;;;;22.11;48.99;96155.31;5063809;28;20438;-79
2022/07/19 05:47:39;;;;;;;9.77;3.20;;;;;;;22.20;47.69;96155.81;5065474;28;20020;-81
2022/07/19 05:50:05;;;;;;;14.68;3.50;;;;;;;22.34;47.83;96150.97;5064504;28;20471;-81
2022/07/19 05:52:31;;;;;;;11.07;3.17;;;;;;;22.45;46.88;96150.19;5064010;28;20552;-79
2022/07/19 05:54:56;;;;;;;12.50;3.33;;;;;;;22.54;47.58;96147.91;5063748;28;20036;-80
2022/07/19 05:57:22;;;;;;;5.35;2.60;;;;;;;22.59;46.52;96149.94;5064392;28;20108;-80
2022/07/19 05:59:48;;;;;;;6.13;3.25;;;;;;;22.50;46.81;96154.94;5064141;28;20032;-80
2022/07/19 06:02:14;;;;;;;4.50;2.53;;;;;;;22.58;46.90;96143.66;5063768;28;20037;-81
2022/07/19 06:04:40;;;;;;;7.63;2.85;;;;;;;22.53;47.45;96145.41;5031736;28;20029;-81
2022/07/19 06:07:05;;;;;;;12.65;2.95;;;;;;;22.60;47.08;96149.72;5062951;28;20036;-80
2022/07/19 06:09:31;;;;;;;6.50;2.83;;;;;;;22.57;47.13;96141.97;5068489;28;20024;-81
2022/07/19 06:11:56;;;;;;;5.57;2.40;;;;;;;22.68;47.34;96147.72;5076367;28;20246;-82
2022/07/19 06:14:22;;;;;;;7.18;3.08;;;;;;;22.74;47.39;96135.84;5050995;28;20116;-80
2022/07/19 06:16:47;;;;;;;6.72;2.17;;;;;;;22.84;46.54;96136.06;5049980;28;20464;-81
2022/07/19 06:19:12;;;;;;;5.68;2.42;;;;;;;22.89;46.35;96132.59;5066405;28;20031;-80
2022/07/19 06:21:38;;;;;;;4.95;2.17;;;;;;;23.08;45.28;96138.78;5068041;28;20032;-81
2022/07/19 06:24:04;;;;;;;9.23;2.25;;;;;;;23.16;45.00;96134.00;5083736;28;20349;-80
2022/07/19 06:26:29;;;;;;;8.45;2.00;;;;;;;23.27;44.73;96135.91;5085860;28;20085;-81
2022/07/19 06:28:55;;;;;;;7.75;2.17;;;;;;;23.52;44.37;96140.25;5066218;28;20024;-82
2022/07/19 06:31:20;;;;;;;3.97;1.95;;;;;;;23.60;43.59;96132.75;5050657;28;20039;-82
2022/07/19 06:33:47;;;;;;;4.10;2.20;;;;;;;23.64;43.30;96132.00;5066858;28;20082;-83
2022/07/19 06:36:13;;;;;;;6.60;2.00;;;;;;;23.56;43.39;96130.50;5066425;28;20025;-80
2022/07/19 06:38:38;;;;;;;8.07;2.35;;;;;;;23.36;43.85;96130.88;5067476;28;20510;-81
2022/07/19 06:41:04;;;;;;;3.42;2.20;;;;;;;23.34;43.35;96125.63;5049014;28;20055;-80
2022/07/19 06:43:29;;;;;;;4.90;2.20;;;;;;;23.37;44.18;96127.06;5067847;28;20091;-80
2022/07/19 06:45:55;;;;;;;6.97;2.13;;;;;;;23.56;42.53;96141.44;5065394;28;20523;-83
2022/07/19 06:48:21;;;;;;;3.60;1.92;;;;;;;23.67;42.33;96128.78;5067376;28;20024;-80
2022/07/19 06:50:46;;;;;;;3.58;1.67;;;;;;;23.82;42.75;96128.25;5065999;28;20035;-81
2022/07/19 06:53:12;;;;;;;4.45;2.13;;;;;;;23.97;42.33;96129.63;5084969;28;20047;-81
2022/07/19 06:55:37;;;;;;;5.38;2.03;;;;;;;24.01;41.63;96124.47;5085008;28;20065;-83
2022/07/19 06:58:02;;;;;;;3.83;2.00;;;;;;;24.13;41.13;96121.66;5065922;28;20471;-80
2022/07/19 07:00:28;;;;;;;2.63;1.73;;;;;;;24.08;41.80;96125.16;5070342;28;20023;-81
2022/07/19 07:02:53;;;;;;;8.13;2.25;;;;;;;24.12;41.81;96126.31;5052531;28;20038;-80
2022/07/19 07:05:19;;;;;;;8.75;2.08;;;;;;;24.08;41.75;96123.22;5089175;28;20031;-81
2022/07/19 07:07:44;;;;;;;4.20;1.88;;;;;;;24.01;41.95;96119.81;5069601;28;20028;-81
2022/07/19 07:10:10;;;;;;;6.20;2.35;;;;;;;24.15;41.49;96125.00;5088938;28;20023;-82
2022/07/19 07:12:35;;;;;;;6.45;2.15;;;;;;;24.26;41.25;96128.78;5069845;28;20028;-81
2022/07/19 07:15:01;;;;;;;5.70;1.98;;;;;;;24.27;41.34;96128.53;5070088;28;20028;-80
2022/07/19 07:17:26;;;;;;;3.25;2.15;;;;;;;24.28;40.91;96118.41;5053704;28;20109;-81
2022/07/19 07:19:52;;;;;;;4.20;2.10;;;;;;;24.34;40.60;96124.78;5052285;28;20032;-81
2022/07/19 07:22:17;;;;;;;7.78;2.13;;;;;;;24.35;40.99;96120.97;5054770;28;20028;-80
2022/07/19 07:24:43;;;;;;;3.60;2.15;;;;;;;24.14;38.73;96124.16;5068824;28;20058;-79
2022/07/19 07:27:08;;;;;;;4.13;1.90;;;;;;;24.23;38.71;96121.84;5070981;28;20121;-80
2022/07/19 07:29:34;;;;;;;3.60;1.70;;;;;;;24.28;37.71;96116.47;5069013;28;20028;-80
2022/07/19 07:31:59;;;;;;;5.13;1.88;;;;;;;24.32;38.87;96119.56;5053401;28;20044;-80
2022/07/19 07:34:24;;;;;;;6.60;2.47;;;;;;;24.37;37.42;96113.31;5087226;28;20032;-80
2022/07/19 07:36:50;;;;;;;3.60;2.38;;;;;;;24.39;36.86;96111.19;5053137;28;20028;-80
2022/07/19 07:39:15;;;;;;;4.75;2.13;;;;;;;24.45;38.24;96118.41;5069889;28;20086;-80
2022/07/19 07:41:41;;;;;;;5.63;2.15;;;;;;;24.51;38.50;96114.66;5086805;28;20089;-80
2022/07/19 07:44:06;;;;;;;4.40;2.15;;;;;;;24.72;38.12;96116.88;5070518;28;20016;-80
2022/07/19 07:46:32;;;;;;;3.83;1.90;;;;;;;24.84;37.27;96108.56;5051745;28;20482;-80
2022/07/19 07:48:57;;;;;;;5.97;1.98;;;;;;;24.76;37.31;96104.34;5088602;28;20189;-81
2022/07/19 07:51:23;;;;;;;12.65;2.13;;;;;;;24.74;37.32;96110.06;5086766;28;20043;-81
2022/07/19 07:53:49;;;;;;;3.47;2.00;;;;;;;24.70;37.99;96103.41;5053233;28;20039;-80
2022/07/19 07:56:14;;;;;;;6.03;1.92;;;;;;;24.77;37.13;96097.75;5087712;28;20020;-80
2022/07/19 07:58:40;;;;;;;3.33;1.88;;;;;;;24.81;36.37;96099.75;5052103;28;20134;-81
2022/07/19 08:01:05;;;;;;;5.55;2.58;;;;;;;25.01;35.93;96100.31;5070025;28;20024;-81
2022/07/19 08:03:31;;;;;;;3.40;1.90;;;;;;;25.14;34.62;96096.38;5034899;28;20170;-79
2022/07/19 08:05:57;;;;;;;3.60;1.77;;;;;;;25.09;34.34;96096.28;5069935;28;20081;-81
2022/07/19 08:08:26;;;;;;;3.80;1.73;;;;;;;25.20;33.08;96100.03;5051610;28;20027;-81
2022/07/19 08:10:52;;;;;;;3.22;1.90;;;;;;;25.26;32.66;96109.97;5069433;28;20036;-80
2022/07/19 08:13:17;;;;;;;5.38;2.00;;;;;;;25.24;32.88;96099.25;5051647;28;20516;-80
2022/07/19 08:15:43;;;;;;;4.10;1.90;;;;;;;25.20;32.35;96100.84;5086764;28;20024;-80
2022/07/19 08:18:09;;;;;;;4.57;2.08;;;;;;;25.16;32.25;96097.78;5086700;28;20059;-81
2022/07/19 08:20:35;;;;;;;4.85;1.95;;;;;;;25.23;32.03;96105.81;5086167;28;20053;-80
2022/07/19 08:23:00;;;;;;;11.88;2.58;;;;;;;25.28;32.21;96097.66;5069593;28;20047;-80
2022/07/19 08:25:26;;;;;;;3.22;1.88;;;;;;;25.32;31.45;96084.25;5085766;28;20035;-80
2022/07/19 08:27:51;;;;;;;3.88;1.85;;;;;;;25.38;31.91;96083.22;5087924;28;20028;-80
2022/07/19 08:30:17;;;;;;;5.20;1.80;;;;;;;25.41;31.58;96090.94;5067842;28;20046;-79
2022/07/19 08:32:42;;;;;;;4.50;1.90;;;;;;;25.37;31.47;96091.72;5068967;28;20031;-82
2022/07/19 08:35:08;;;;;;;7.00;1.73;;;;;;;25.38;31.38;96088.72;5086545;28;20028;-80
2022/07/19 08:37:34;;;;;;;4.70;2.00;;;;;;;25.45;30.71;96085.78;5051606;28;20107;-81
2022/07/19 08:39:59;;;;;;;4.28;1.83;;;;;;;25.50;31.70;96083.09;5052644;28;20028;-81
2022/07/19 08:42:25;;;;;;;5.88;1.88;;;;;;;25.46;31.35;96081.94;5067455;28;20024;-80
2022/07/19 08:44:51;;;;;;;6.35;2.20;;;;;;;25.42;31.72;96087.09;5068869;28;20024;-80
2022/07/19 08:47:18;;;;;;;2.97;2.10;;;;;;;25.50;32.13;96071.28;5050374;28;20133;-80
2022/07/19 08:49:43;;;;;;;7.15;2.25;;;;;;;25.42;31.93;96080.81;5068880;28;20483;-80
2022/07/19 08:52:09;;;;;;;6.68;1.98;;;;;;;25.52;31.71;96080.91;5034090;28;20511;-81
2022/07/19 08:54:34;;;;;;;5.88;2.10;;;;;;;25.55;31.51;96080.38;5068921;28;20020;-80
2022/07/19 08:59:44;;;;;;;4.43;1.92;;;;;;;25.67;32.20;96077.53;5085872;28;20030;-80
2022/07/19 09:02:09;;;;;;;3.22;1.80;;;;;;;25.80;32.31;96076.28;5086869;28;20024;-80
2022/07/19 09:04:35;;;;;;;3.97;2.00;;;;;;;25.78;31.85;96069.38;5085630;28;20020;-80
2022/07/19 09:07:00;;;;;;;3.92;1.80;;;;;;;25.85;32.11;96071.94;5086613;28;20051;-80
2022/07/19 09:09:28;;;;;;;3.97;2.20;;;;;;;25.84;32.01;96070.28;5066864;28;20023;-80
2022/07/19 09:11:54;;;;;;;4.30;2.03;;;;;;;25.76;31.85;96080.63;5051768;28;20028;-81
2022/07/19 09:14:30;;;;;;;7.45;2.15;;;;;;;25.71;32.07;96077.00;5067320;28;20851;-80
2022/07/19 09:17:02;;;;;;;4.72;2.30;;;;;;;25.77;31.50;96065.00;5084908;28;20067;-80
2022/07/19 09:19:31;;;;;;;5.13;2.00;;;;;;;25.73;31.51;96067.41;5086611;28;20040;-79
2022/07/19 09:22:07;;;;;;;8.52;2.70;;;;;;;25.82;32.62;96065.03;5033453;28;20464;-81
2022/07/19 09:24:35;;;;;;;8.98;2.33;;;;;;;25.88;32.48;96061.25;5061662;28;20055;-81
2022/07/19 09:27:10;;;;;;;3.50;2.03;;;;;;;25.99;32.33;96062.16;5069100;28;20031;-81
2022/07/19 09:29:41;;;;;;;4.78;1.80;;;;;;;25.88;32.48;96065.91;5051842;28;20047;-80
2022/07/19 09:32:09;;;;;;;3.95;2.10;;;;;;;25.89;32.24;96062.09;5051796;28;20031;-79
2022/07/19 09:34:39;;;;;;;3.40;2.08;;;;;;;25.92;32.28;96054.13;5050271;28;20566;-80
2022/07/19 09:37:15;;;;;;;3.30;2.00;;;;;;;25.92;34.17;96050.59;5068422;28;20062;-80
2022/07/19 09:39:44;;;;;;;4.13;2.35;;;;;;;25.92;31.90;96062.38;5066838;28;20498;-80
2022/07/19 09:42:10;;;;;;;2.50;1.85;;;;;;;25.88;31.57;96060.41;5052213;28;20619;-80
2022/07/19 09:44:36;;;;;;;3.85;2.17;;;;;;;25.86;30.94;96046.13;5067756;28;20027;-80
2022/07/19 09:47:02;;;;;;;6.13;2.20;;;;;;;25.88;30.96;96055.75;5085788;28;20020;-79
2022/07/19 09:49:27;;;;;;;10.27;2.30;;;;;;;25.67;31.78;96050.06;5034760;28;20035;-79
2022/07/19 09:51:53;;;;;;;4.30;2.33;;;;;;;25.76;33.43;96047.66;5066242;28;20024;-81
2022/07/19 09:54:23;;;;;;;4.47;2.17;;;;;;;26.12;31.67;96038.09;5068099;28;20032;-81
2022/07/19 09:56:52;;;;;;;8.23;2.55;;;;;;;26.33;32.08;96047.38;5049627;28;20476;-81
2022/07/19 09:59:18;;;;;;;4.47;1.80;;;;;;;26.39;31.46;96054.56;5068198;28;20055;-81
2022/07/19 10:01:43;;;;;;;5.53;2.00;;;;;;;26.41;31.28;96052.38;5050361;28;20028;-80
2022/07/19 10:04:11;;;;;;;8.13;2.00;;;;;;;26.36;31.74;96046.84;5067006;28;20436;-81
2022/07/19 10:06:37;;;;;;;3.22;2.22;;;;;;;26.37;31.50;96043.00;5050654;28;20031;-80
2022/07/19 10:09:03;;;;;;;2.92;2.10;;;;;;;26.34;32.43;96040.78;5066119;28;20017;-80
2022/07/19 10:11:29;;;;;;;3.75;1.92;;;;;;;26.28;30.43;96037.13;5067866;28;20028;-79
2022/07/19 10:13:54;;;;;;;2.90;2.00;;;;;;;26.34;32.11;96039.94;5066556;28;20024;-81
2022/07/19 10:17:04;;;;;;;6.03;1.80;;;;;;;26.41;30.26;96040.53;5050955;28;20020;-81
2022/07/19 10:19:39;;;;;;;6.55;2.00;;;;;;;26.41;30.56;96035.03;5065425;28;20483;-80
2022/07/19 10:22:06;;;;;;;2.78;1.98;;;;;;;26.35;32.44;96025.09;5084171;28;20434;-81
2022/07/19 10:24:48;;;;;;;3.33;2.00;;;;;;;26.44;30.80;96031.75;5052146;28;20016;-79
2022/07/19 10:27:15;;;;;;;4.05;2.10;;;;;;;26.37;29.57;96028.44;5083757;28;20028;-80
2022/07/19 10:29:40;;;;;;;7.38;2.13;;;;;;;26.43;31.67;96027.38;5050849;28;20113;-80
2022/07/19 10:32:10;;;;;;;3.35;2.13;;;;;;;26.48;30.85;96016.41;5084401;28;20445;-80
2022/07/19 10:34:36;;;;;;;4.68;1.90;;;;;;;26.49;30.60;96018.06;5053999;28;20043;-80
2022/07/19 10:37:01;;;;;;;4.47;2.00;;;;;;;26.35;30.76;96009.44;5071221;28;20034;-81
2022/07/19 10:39:33;;;;;;;3.28;2.10;;;;;;;26.47;32.69;96017.47;5088232;28;20086;-82
2022/07/19 10:42:09;;;;;;;4.40;2.20;;;;;;;26.40;30.75;96016.91;5039630;28;20024;-82
2022/07/19 10:44:35;;;;;;;3.25;1.90;;;;;;;26.30;30.67;96023.13;5070679;28;20063;-81
2022/07/19 10:47:01;;;;;;;4.35;2.10;;;;;;;26.25;30.14;96021.16;5089932;28;20020;-80
2022/07/19 10:49:43;;;;;;;3.60;2.30;;;;;;;26.32;30.90;96025.63;5070190;28;20022;-81
2022/07/19 10:52:27;;;;;;;2.97;2.22;;;;;;;26.37;29.98;96018.25;5088622;28;20067;-82
2022/07/19 10:55:18;;;;;;;5.05;2.20;;;;;;;26.26;30.49;96006.31;5090017;28;20034;-80
2022/07/19 10:57:47;;;;;;;4.20;2.10;;;;;;;26.21;32.35;96008.22;5088084;28;20032;-81
2022/07/19 11:00:16;;;;;;;4.53;2.20;;;;;;;26.23;30.80;96006.84;5089040;28;20426;-82
2022/07/19 11:02:41;;;;;;;5.18;2.05;;;;;;;26.32;31.35;95998.13;5088867;28;20135;-82
2022/07/19 11:05:07;;;;;;;4.55;2.28;;;;;;;26.46;31.37;95999.34;5070805;28;20135;-82
2022/07/19 11:07:33;;;;;;;5.38;2.35;;;;;;;26.59;31.16;95997.19;5089700;28;20028;-82
2022/07/19 11:09:58;;;;;;;4.07;2.25;;;;;;;26.68;30.08;95989.28;5069542;28;20039;-80
2022/07/19 11:12:24;;;;;;;2.75;1.95;;;;;;;26.74;30.50;95986.31;5070850;28;20028;-80
2022/07/19 11:14:50;;;;;;;4.22;2.10;;;;;;;26.74;29.61;95985.47;5087794;28;20032;-81
2022/07/19 11:17:15;;;;;;;2.97;1.88;;;;;;;26.69;29.28;95989.00;5088713;28;20047;-81
2022/07/19 11:19:57;;;;;;;3.97;1.80;;;;;;;26.60;30.07;95987.88;5069545;28;20023;-81
2022/07/19 11:22:22;;;;;;;3.90;2.10;;;;;;;26.39;28.72;95993.25;5087867;28;20028;-81
2022/07/19 11:24:47;;;;;;;2.60;1.63;;;;;;;26.53;29.50;95988.94;5053620;28;20028;-80
2022/07/19 11:27:13;;;;;;;4.35;1.80;;;;;;;26.70;30.04;95985.16;5086999;28;20031;-82
2022/07/19 11:29:55;;;;;;;4.07;1.70;;;;;;;26.50;29.26;95978.44;5053722;28;20032;-81
2022/07/19 11:32:20;;;;;;;3.00;1.80;;;;;;;26.57;29.67;95977.41;5052612;28;20039;-80